Time;durP1;ratioP1;P1;durP2;ratioP2;P2;SDS_P1;SDS_P2;PMS_P1;PMS_P2;Temp;Humidity;BMP_temperature;BMP_pressure;BME280_temperature;BME280_humidity;BME280_pressure;Samples;Min_cycle;Max_cycle;Signal;HPM_P1;HPM_P2
2021/11/20 00:02:25;;;;;;;5.93;3.58;;;;;;;2.13;76.41;97510.28;4974843;28;20038;-83
2021/11/20 00:04:52;;;;;;;7.07;3.75;;;;;;;2.46;76.58;97550.09;5010952;28;20125;-81
2021/11/20 00:07:19;;;;;;;7.32;3.58;;;;;;;2.34;76.37;97532.28;4983440;28;20722;-80
2021/11/20 00:09:46;;;;;;;6.40;3.65;;;;;;;2.46;76.26;97533.88;5006366;28;20046;-82
2021/11/20 00:12:24;;;;;;;5.93;3.63;;;;;;;2.26;76.41;97499.84;5005028;28;20121;-82
2021/11/20 00:14:50;;;;;;;6.43;3.63;;;;;;;2.05;76.48;97459.94;5010332;28;20536;-80
2021/11/20 00:17:17;;;;;;;7.00;3.40;;;;;;;2.34;76.61;97494.63;5014358;28;20081;-80
2021/11/20 00:19:45;;;;;;;6.55;3.60;;;;;;;2.17;76.59;97455.50;4989656;28;20061;-81
2021/11/20 00:22:20;;;;;;;6.15;3.40;;;;;;;2.17;76.58;97458.06;4987589;28;20044;-80
2021/11/20 00:24:55;;;;;;;7.22;3.90;;;;;;;2.43;76.78;97487.69;4989123;28;20053;-80
2021/11/20 00:27:25;;;;;;;6.65;3.70;;;;;;;2.41;76.78;97478.28;5006064;28;20120;-80
2021/11/20 00:30:12;;;;;;;6.70;3.50;;;;;;;2.38;76.83;97451.81;4970410;28;20033;-81
2021/11/20 00:32:56;;;;;;;6.28;3.83;;;;;;;2.48;76.75;97452.53;5001638;28;20046;-80
2021/11/20 00:35:25;;;;;;;6.50;3.88;;;;;;;2.30;76.52;97413.44;4992127;28;20066;-79
2021/11/20 00:37:52;;;;;;;5.03;3.22;;;;;;;1.99;76.82;97361.69;5010455;28;20050;-82
2021/11/20 00:40:27;;;;;;;6.28;3.60;;;;;;;2.46;76.72;97420.91;4996507;28;20046;-80
2021/11/20 00:42:52;;;;;;;8.15;3.90;;;;;;;2.06;76.80;97348.75;5008869;28;20037;-80
2021/11/20 00:45:20;;;;;;;7.60;4.25;;;;;;;2.27;76.84;97382.66;5015928;28;20448;-82
2021/11/20 00:47:46;;;;;;;6.35;3.85;;;;;;;2.06;76.88;97343.59;5010422;28;20038;-79
2021/11/20 00:50:18;;;;;;;6.68;4.05;;;;;;;2.30;76.75;97356.97;4978173;28;20030;-82
2021/11/20 00:52:45;;;;;;;7.50;3.50;;;;;;;2.41;76.78;97375.59;5009010;28;20045;-80
2021/11/20 00:55:16;;;;;;;6.85;3.88;;;;;;;2.38;76.87;97354.28;5005085;28;20034;-81
2021/11/20 00:57:45;;;;;;;6.35;3.60;;;;;;;2.36;77.06;97349.16;4990650;28;20045;-84
2021/11/20 01:00:14;;;;;;;6.68;3.42;;;;;;;1.67;77.47;97224.47;4993694;28;20099;-84
2021/11/20 01:02:40;;;;;;;6.05;3.78;;;;;;;2.22;77.32;97315.16;5021973;28;20098;-82
2021/11/20 01:05:08;;;;;;;7.00;3.35;;;;;;;2.28;76.95;97316.78;5006773;28;20172;-79
2021/11/20 01:07:34;;;;;;;5.97;3.50;;;;;;;2.25;77.19;97304.84;4993715;28;20042;-82
2021/11/20 01:10:06;;;;;;;7.10;3.67;;;;;;;1.94;77.38;97246.28;5003800;28;20042;-80
2021/11/20 01:12:32;;;;;;;5.28;3.22;;;;;;;1.79;77.45;97225.13;5010457;28;20046;-81
2021/11/20 01:14:59;;;;;;;4.95;3.00;;;;;;;1.94;77.53;97236.91;5002902;28;20065;-80
2021/11/20 01:17:31;;;;;;;6.50;3.20;;;;;;;2.23;77.31;97278.34;4989300;28;20432;-80
2021/11/20 01:19:59;;;;;;;5.97;2.90;;;;;;;2.19;77.54;97272.44;5005016;28;20072;-82
2021/11/20 01:22:57;;;;;;;6.47;3.40;;;;;;;1.64;77.85;97168.97;4995143;28;20060;-80
2021/11/20 01:25:42;;;;;;;6.85;4.05;;;;;;;1.87;77.63;97193.41;4990985;28;20041;-80
2021/11/20 01:28:33;;;;;;;6.15;3.95;;;;;;;1.93;77.89;97198.44;4977882;28;20046;-80
2021/11/20 01:31:19;;;;;;;5.95;2.75;;;;;;;2.10;77.72;97211.00;4993024;28;20421;-80
2021/11/20 01:33:47;;;;;;;6.45;3.35;;;;;;;2.04;77.35;97208.50;4998379;28;20050;-80
2021/11/20 01:36:17;;;;;;;4.88;2.55;;;;;;;2.01;77.61;97206.84;5005627;28;20045;-81
2021/11/20 01:38:46;;;;;;;5.90;3.30;;;;;;;1.85;77.75;97180.59;5012734;28;20053;-80
2021/11/20 01:41:32;;;;;;;5.78;3.28;;;;;;;1.89;77.56;97166.00;5006708;28;20062;-82
2021/11/20 01:44:18;;;;;;;5.03;2.97;;;;;;;1.92;77.86;97150.56;5007051;28;20045;-81
2021/11/20 01:46:57;;;;;;;6.32;3.38;;;;;;;2.03;78.04;97155.50;4986757;28;20607;-78
2021/11/20 01:49:30;;;;;;;6.22;3.30;;;;;;;2.02;78.00;97141.00;5006641;28;20065;-79
2021/11/20 01:52:08;;;;;;;5.78;2.78;;;;;;;2.10;77.98;97134.03;4990802;28;20076;-79
2021/11/20 01:55:02;;;;;;;5.43;3.03;;;;;;;2.01;77.99;97108.50;5003105;28;20033;-80
2021/11/20 01:58:35;;;;;;;6.05;2.80;;;;;;;1.85;77.92;97072.06;5005988;28;20042;-80
2021/11/20 02:01:12;;;;;;;5.03;2.92;;;;;;;2.00;77.90;97099.13;4990108;28;20096;-79
2021/11/20 02:03:46;;;;;;;5.45;2.72;;;;;;;1.97;78.00;97082.09;4990730;28;20045;-80
2021/11/20 02:06:55;;;;;;;4.82;2.50;;;;;;;1.98;78.20;97072.69;4974690;28;20648;-79
2021/11/20 02:09:30;;;;;;;4.97;2.65;;;;;;;1.69;78.09;97028.72;4973905;28;20521;-82
2021/11/20 02:12:27;;;;;;;5.55;2.97;;;;;;;1.74;78.01;97050.00;5027555;28;20042;-79
2021/11/20 02:14:57;;;;;;;5.80;2.67;;;;;;;1.80;78.27;97051.59;4998349;28;20062;-81
2021/11/20 02:17:34;;;;;;;3.97;2.33;;;;;;;1.78;78.02;97046.50;4990476;28;20046;-81
2021/11/20 02:20:10;;;;;;;4.95;2.58;;;;;;;1.80;78.65;97029.38;5001025;28;20038;-79
2021/11/20 02:22:38;;;;;;;3.97;2.28;;;;;;;1.74;78.34;97014.09;4984019;28;20128;-81
2021/11/20 02:25:06;;;;;;;3.83;2.38;;;;;;;1.72;78.47;97009.88;5006210;28;20046;-80
2021/11/20 02:27:48;;;;;;;3.60;2.42;;;;;;;1.50;78.69;96967.50;4975361;28;20049;-80
2021/11/20 02:30:28;;;;;;;3.35;2.20;;;;;;;1.50;78.24;96969.25;5016675;28;20034;-81
2021/11/20 02:33:09;;;;;;;3.30;2.00;;;;;;;1.52;78.71;96962.38;5003110;28;20072;-79
2021/11/20 02:35:44;;;;;;;4.45;2.30;;;;;;;1.65;78.39;96986.06;5004303;28;20043;-82
2021/11/20 02:38:23;;;;;;;3.42;2.20;;;;;;;1.60;78.66;96980.19;4989900;28;20058;-78
2021/11/20 02:40:49;;;;;;;2.75;2.00;;;;;;;1.52;78.75;96951.25;5004686;28;20042;-79
2021/11/20 02:43:17;;;;;;;4.05;2.25;;;;;;;1.56;78.45;96955.47;4988816;28;20049;-79
2021/11/20 02:46:18;;;;;;;3.55;2.50;;;;;;;1.48;78.34;96930.81;5002967;28;20046;-81
2021/11/20 02:48:46;;;;;;;4.22;2.30;;;;;;;1.37;79.20;96908.81;5001605;28;20382;-80
2021/11/20 02:51:22;;;;;;;2.97;1.90;;;;;;;1.38;78.72;96906.25;4988208;28;20033;-79
2021/11/20 02:53:54;;;;;;;2.50;1.73;;;;;;;1.38;78.32;96913.94;4985039;28;20046;-79
2021/11/20 02:56:22;;;;;;;3.28;1.85;;;;;;;1.33;78.91;96895.22;4985276;28;20038;-80
2021/11/20 02:58:49;;;;;;;2.58;1.77;;;;;;;0.67;78.68;96782.84;4988644;28;20484;-80
2021/11/20 03:01:19;;;;;;;3.20;1.85;;;;;;;0.99;78.98;96837.75;4986218;28;20046;-80
2021/11/20 03:03:45;;;;;;;3.10;2.08;;;;;;;1.03;79.11;96839.41;5003047;28;20050;-79
2021/11/20 03:06:12;;;;;;;2.92;1.70;;;;;;;1.08;78.66;96848.72;4990988;28;20038;-81
2021/11/20 03:08:38;;;;;;;3.00;1.80;;;;;;;1.03;78.56;96820.63;4993968;28;21533;-80
2021/11/20 03:11:14;;;;;;;3.38;1.58;;;;;;;1.07;79.19;96814.56;4978154;28;20111;-82
2021/11/20 03:13:46;;;;;;;3.60;1.85;;;;;;;1.34;78.73;96837.97;5008461;28;20076;-80
2021/11/20 03:16:24;;;;;;;2.95;1.60;;;;;;;1.23;79.03;96817.69;4991830;28;20057;-80
2021/11/20 03:18:51;;;;;;;3.08;1.63;;;;;;;1.26;78.79;96820.19;4992895;28;20056;-80
2021/11/20 03:21:19;;;;;;;3.13;1.80;;;;;;;1.12;78.92;96788.84;4995096;28;20049;-81
2021/11/20 03:23:49;;;;;;;2.85;1.70;;;;;;;0.34;78.71;96641.84;4997874;28;20041;-80
2021/11/20 03:26:16;;;;;;;2.90;1.75;;;;;;;1.30;78.78;96792.78;5005098;28;20046;-79
2021/11/20 03:28:43;;;;;;;3.42;1.65;;;;;;;0.92;79.39;96725.25;5008235;28;20045;-80
2021/11/20 03:31:09;;;;;;;3.97;2.03;;;;;;;1.29;79.03;96794.53;5009021;28;20405;-79
2021/11/20 03:33:37;;;;;;;2.60;1.60;;;;;;;1.20;78.91;96756.25;4976822;28;20041;-79
2021/11/20 03:36:05;;;;;;;4.30;2.05;;;;;;;1.21;79.56;96755.38;4976364;28;20049;-79
2021/11/20 03:38:31;;;;;;;2.92;1.80;;;;;;;1.01;79.12;96718.22;4991559;28;20141;-79
2021/11/20 03:41:06;;;;;;;2.58;1.65;;;;;;;0.82;79.21;96675.94;4991208;28;20042;-80
2021/11/20 03:43:32;;;;;;;3.63;1.70;;;;;;;1.27;79.10;96742.47;5004549;28;20045;-82
2021/11/20 03:46:01;;;;;;;3.10;1.88;;;;;;;0.89;79.15;96665.53;5002472;28;20049;-80
2021/11/20 03:48:29;;;;;;;3.97;1.77;;;;;;;1.12;79.06;96696.66;4993718;28;20045;-82
2021/11/20 03:50:55;;;;;;;2.60;1.50;;;;;;;1.02;79.38;96680.63;4997799;28;20038;-80
2021/11/20 03:53:21;;;;;;;3.75;1.90;;;;;;;1.21;79.35;96696.47;5008274;28;20092;-79
2021/11/20 03:55:50;;;;;;;2.92;1.65;;;;;;;1.07;79.51;96658.34;5003974;28;20505;-79
2021/11/20 03:58:18;;;;;;;3.47;1.50;;;;;;;0.75;79.19;96632.53;5007502;28;20095;-81
2021/11/20 04:00:54;;;;;;;3.50;1.80;;;;;;;0.89;79.56;96628.84;5019616;28;20042;-81
2021/11/20 04:03:21;;;;;;;3.15;2.00;;;;;;;1.25;79.86;96667.34;5008866;28;20115;-80
2021/11/20 04:05:51;;;;;;;3.90;2.10;;;;;;;1.13;79.74;96642.84;5009217;28;20046;-78
2021/11/20 04:08:18;;;;;;;2.72;1.77;;;;;;;1.17;79.19;96633.38;4992609;28;20152;-82
2021/11/20 04:10:55;;;;;;;3.53;1.80;;;;;;;1.21;79.46;96624.75;4993137;28;20157;-81
2021/11/20 04:13:22;;;;;;;2.38;1.60;;;;;;;0.89;79.67;96573.38;5004490;28;20045;-81
2021/11/20 04:15:49;;;;;;;7.80;2.75;;;;;;;1.18;79.60;96612.00;4976626;28;20049;-80
2021/11/20 04:18:16;;;;;;;9.52;4.22;;;;;;;1.20;79.75;96593.19;4989949;28;20044;-81
2021/11/20 04:20:44;;;;;;;6.25;3.03;;;;;;;1.39;79.39;96609.81;4974935;28;20037;-79
2021/11/20 04:23:12;;;;;;;11.43;4.60;;;;;;;1.32;79.80;96588.63;5002746;28;20494;-81
2021/11/20 04:25:39;;;;;;;10.48;4.78;;;;;;;1.46;79.86;96588.31;5005361;28;20505;-80
2021/11/20 04:28:05;;;;;;;6.03;2.83;;;;;;;1.35;79.71;96573.19;5008642;28;20034;-79
2021/11/20 04:30:44;;;;;;;3.35;1.63;;;;;;;1.14;79.45;96534.41;5006116;28;20097;-81
2021/11/20 04:33:12;;;;;;;4.28;2.40;;;;;;;1.45;79.27;96577.22;4995242;28;20048;-79
2021/11/20 04:35:39;;;;;;;6.25;2.78;;;;;;;1.23;79.46;96522.22;5003492;28;20073;-79
2021/11/20 04:38:06;;;;;;;9.98;4.65;;;;;;;1.42;79.40;96548.25;5013396;28;20054;-82
2021/11/20 04:40:35;;;;;;;7.05;3.88;;;;;;;1.09;78.83;96487.56;4984753;28;20068;-80
2021/11/20 04:43:02;;;;;;;7.93;4.18;;;;;;;1.35;79.62;96530.47;4993682;28;20069;-82
2021/11/20 04:45:34;;;;;;;4.55;2.40;;;;;;;1.52;79.63;96536.94;5005766;28;20393;-83
2021/11/20 04:48:02;;;;;;;5.18;2.30;;;;;;;1.52;79.68;96536.06;4983533;28;20053;-82
2021/11/20 04:50:41;;;;;;;5.47;3.45;;;;;;;1.43;79.38;96514.94;4990348;28;20054;-80
2021/11/20 04:53:07;;;;;;;3.28;2.05;;;;;;;1.45;79.33;96509.75;4976766;28;20038;-81
2021/11/20 04:55:33;;;;;;;2.63;1.48;;;;;;;1.15;79.26;96463.50;4990100;28;20409;-79
2021/11/20 04:58:01;;;;;;;3.38;1.80;;;;;;;1.50;79.16;96525.88;5005680;28;20102;-80
2021/11/20 05:00:39;;;;;;;2.97;1.75;;;;;;;1.48;79.46;96510.50;4998379;28;20366;-80
2021/11/20 05:03:07;;;;;;;2.85;1.55;;;;;;;1.39;79.70;96479.16;4974637;28;20137;-79
2021/11/20 05:05:41;;;;;;;2.25;1.50;;;;;;;1.58;79.44;96502.59;4989879;28;20136;-83
2021/11/20 05:08:12;;;;;;;3.35;1.60;;;;;;;0.56;79.11;96348.00;4974457;28;20038;-81
2021/11/20 05:10:41;;;;;;;2.38;1.15;;;;;;;1.52;79.63;96472.84;4991685;28;20037;-83
2021/11/20 05:13:11;;;;;;;1.83;1.20;;;;;;;1.45;79.53;96438.00;5004158;28;20076;-82
2021/11/20 05:15:41;;;;;;;2.78;1.35;;;;;;;1.37;79.13;96425.41;5013836;28;20038;-82
2021/11/20 05:18:08;;;;;;;2.50;1.25;;;;;;;1.57;79.42;96454.78;4990229;28;20088;-80
2021/11/20 05:21:09;;;;;;;1.80;1.27;;;;;;;1.28;79.17;96400.88;4932062;29;20066;-82
2021/11/20 05:23:37;;;;;;;4.35;1.70;;;;;;;1.49;79.18;96430.19;4981253;28;20288;-81
2021/11/20 05:26:06;;;;;;;1.60;1.20;;;;;;;1.56;79.48;96409.53;4991749;28;20057;-81
2021/11/20 05:28:32;;;;;;;2.35;1.33;;;;;;;1.80;79.74;96444.75;5007449;28;20052;-80
2021/11/20 05:31:00;;;;;;;1.95;1.30;;;;;;;1.69;79.19;96421.13;4991463;28;20552;-82
2021/11/20 05:33:32;;;;;;;2.55;1.50;;;;;;;1.85;79.75;96446.34;4987531;28;20038;-81
2021/11/20 05:36:00;;;;;;;1.83;1.17;;;;;;;1.85;79.64;96430.97;4991004;28;20611;-80
2021/11/20 05:38:27;;;;;;;2.47;1.50;;;;;;;1.66;79.21;96387.88;5028130;28;20114;-78
2021/11/20 05:40:53;;;;;;;2.92;1.70;;;;;;;1.92;79.59;96425.63;5018122;28;20034;-79
2021/11/20 05:43:23;;;;;;;3.00;1.40;;;;;;;1.78;79.36;96389.25;4982030;28;20048;-81
2021/11/20 05:45:58;;;;;;;2.88;1.27;;;;;;;1.80;79.33;96390.91;5004323;28;20042;-83
2021/11/20 05:48:24;;;;;;;3.85;1.42;;;;;;;1.67;79.49;96358.78;5014853;28;20054;-80
2021/11/20 05:50:51;;;;;;;3.38;2.22;;;;;;;1.71;79.19;96357.84;4996663;28;20501;-83
2021/11/20 05:53:21;;;;;;;3.58;1.75;;;;;;;1.72;79.29;96353.56;4992746;28;20581;-82
2021/11/20 05:55:50;;;;;;;3.35;1.30;;;;;;;1.88;78.76;96375.31;5001727;28;20071;-82
2021/11/20 05:58:17;;;;;;;4.00;1.42;;;;;;;1.65;79.25;96333.22;5012764;28;20041;-83
2021/11/20 06:00:49;;;;;;;2.33;1.45;;;;;;;1.57;78.90;96321.50;4974346;28;20144;-83
2021/11/20 06:03:17;;;;;;;2.10;1.60;;;;;;;1.62;78.94;96335.03;5006247;28;20034;-81
2021/11/20 06:05:50;;;;;;;2.25;1.48;;;;;;;1.54;79.15;96332.69;5003946;28;20038;-84
2021/11/20 06:08:20;;;;;;;1.95;1.10;;;;;;;1.95;78.92;96376.81;4991149;28;20041;-80
2021/11/20 06:10:52;;;;;;;1.90;1.40;;;;;;;1.99;79.80;96379.28;4978926;28;20078;-81
2021/11/20 06:13:18;;;;;;;3.22;1.70;;;;;;;1.46;79.98;96268.81;5022717;28;20046;-83
2021/11/20 06:16:05;;;;;;;3.00;1.70;;;;;;;1.61;78.68;96282.94;5002484;28;20502;-81
2021/11/20 06:18:31;;;;;;;2.88;1.70;;;;;;;1.82;79.36;96306.25;4988710;28;20099;-80
2021/11/20 06:20:58;;;;;;;2.30;1.42;;;;;;;1.90;79.41;96286.34;5008675;28;20117;-82
2021/11/20 06:23:27;;;;;;;2.20;1.30;;;;;;;2.47;79.86;96357.31;4988647;28;20038;-78
2021/11/20 06:25:59;;;;;;;1.67;1.13;;;;;;;2.06;79.56;96285.88;5021125;28;20053;-79
2021/11/20 06:28:27;;;;;;;2.13;1.20;;;;;;;2.53;79.85;96357.13;4992413;28;20477;-82
2021/11/20 06:30:54;;;;;;;3.15;1.45;;;;;;;2.52;79.85;96329.78;4968623;28;20053;-83
2021/11/20 06:33:20;;;;;;;2.75;1.50;;;;;;;2.44;79.58;96303.53;5014869;28;20417;-81
2021/11/20 06:36:05;;;;;;;3.38;1.60;;;;;;;2.55;79.54;96314.25;5012596;28;20045;-83
2021/11/20 06:38:44;;;;;;;4.85;1.50;;;;;;;2.28;79.50;96262.09;5005205;28;20101;-83
2021/11/20 06:41:13;;;;;;;3.17;2.00;;;;;;;2.35;79.66;96256.72;5014613;28;20092;-79
2021/11/20 06:43:41;;;;;;;5.25;1.88;;;;;;;2.33;79.86;96230.28;5014610;28;20554;-79
2021/11/20 06:46:11;;;;;;;3.72;2.58;;;;;;;2.29;79.72;96220.16;5016799;28;20045;-80
2021/11/20 06:48:38;;;;;;;4.18;2.00;;;;;;;2.04;79.31;96156.84;5003148;28;20568;-79
2021/11/20 06:51:19;;;;;;;3.13;1.83;;;;;;;3.13;79.57;96320.94;4989317;28;20038;-79
2021/11/20 06:54:05;;;;;;;4.60;2.08;;;;;;;3.17;79.19;96315.63;5020219;28;20535;-79
2021/11/20 06:56:53;;;;;;;6.75;2.38;;;;;;;3.26;79.45;96327.31;5020805;28;20050;-79
2021/11/20 07:02:46;;;;;;;5.38;2.65;;;;;;;3.15;79.88;96272.91;5004808;28;20542;-77
2021/11/20 07:05:13;;;;;;;3.75;1.90;;;;;;;3.46;79.74;96310.31;4981032;28;20181;-81
2021/11/20 07:07:39;;;;;;;3.17;1.90;;;;;;;3.47;79.85;96312.88;4987041;28;20076;-78
2021/11/20 07:10:06;;;;;;;3.53;2.30;;;;;;;3.51;79.68;96312.75;5014130;28;20049;-78
2021/11/20 07:12:32;;;;;;;3.88;2.30;;;;;;;3.50;79.50;96306.75;5007910;28;20044;-79
2021/11/20 07:14:58;;;;;;;4.05;2.38;;;;;;;3.38;79.41;96276.38;4988837;28;20147;-79
2021/11/20 07:17:27;;;;;;;3.78;2.40;;;;;;;3.37;79.47;96274.69;4973087;28;20042;-78
2021/11/20 07:20:26;;;;;;;4.65;2.50;;;;;;;3.45;79.30;96281.22;4982274;28;20509;-80
2021/11/20 07:23:17;;;;;;;3.80;2.65;;;;;;;3.54;79.45;96300.63;5000889;28;20084;-81
2021/11/20 07:25:44;;;;;;;8.45;3.33;;;;;;;3.36;79.57;96267.88;5005862;28;20052;-80
2021/11/20 07:28:11;;;;;;;8.60;3.75;;;;;;;3.35;79.08;96255.91;5009086;28;20034;-78
2021/11/20 07:30:38;;;;;;;5.63;3.45;;;;;;;3.45;78.88;96272.66;4991996;28;20033;-78
2021/11/20 07:33:06;;;;;;;11.98;4.60;;;;;;;3.43;78.78;96269.31;4998526;28;20038;-77
2021/11/20 07:35:40;;;;;;;12.88;5.75;;;;;;;3.47;78.78;96287.16;5023485;28;20050;-77
2021/11/20 07:38:09;;;;;;;22.35;9.95;;;;;;;3.53;78.98;96296.38;5018831;28;20081;-79
2021/11/20 07:40:38;;;;;;;24.55;8.60;;;;;;;3.49;78.98;96302.50;5007571;28;20038;-80
2021/11/20 07:43:05;;;;;;;20.10;9.00;;;;;;;3.53;79.36;96304.09;5014848;28;20048;-81
2021/11/20 07:45:53;;;;;;;20.92;8.35;;;;;;;3.66;79.42;96304.47;5007800;28;20741;-82
2021/11/20 07:48:23;;;;;;;17.05;7.65;;;;;;;3.70;79.28;96295.75;4991845;28;20045;-80
2021/11/20 07:50:53;;;;;;;12.10;5.65;;;;;;;3.71;79.17;96281.16;5008114;28;20375;-78
2021/11/20 07:53:55;;;;;;;11.93;5.53;;;;;;;3.85;79.15;96273.78;4987568;28;20523;-79
2021/11/20 07:56:27;;;;;;;6.55;4.00;;;;;;;3.90;79.56;96263.28;4992203;28;20042;-76
2021/11/20 07:58:58;;;;;;;5.97;3.50;;;;;;;4.02;79.67;96265.38;5004570;28;20074;-78
2021/11/20 08:01:26;;;;;;;6.57;3.22;;;;;;;3.84;79.36;96219.78;5019207;28;20050;-77
2021/11/20 08:03:55;;;;;;;10.48;2.70;;;;;;;4.40;79.43;96298.22;5020193;28;20064;-75
2021/11/20 08:06:27;;;;;;;5.35;2.97;;;;;;;4.01;79.42;96221.72;5008910;28;20165;-81
2021/11/20 08:09:03;;;;;;;5.90;2.70;;;;;;;4.28;78.58;96271.25;5022425;28;20762;-84
2021/11/20 08:11:47;;;;;;;5.43;2.90;;;;;;;4.19;78.36;96263.91;5005349;28;20037;-77
2021/11/20 08:14:13;;;;;;;4.07;2.40;;;;;;;4.18;78.88;96254.50;5006474;28;20127;-78
2021/11/20 08:16:58;;;;;;;3.92;2.33;;;;;;;4.41;79.15;96287.03;4997259;28;20488;-81
2021/11/20 08:19:47;;;;;;;5.63;2.30;;;;;;;4.55;78.53;96304.50;5016899;28;20104;-80
2021/11/20 08:22:32;;;;;;;4.22;2.35;;;;;;;4.47;79.09;96285.94;5000837;28;20050;-78
2021/11/20 08:24:58;;;;;;;3.78;2.10;;;;;;;4.49;78.23;96274.69;5022737;28;20078;-77
2021/11/20 08:27:26;;;;;;;3.30;2.17;;;;;;;4.66;78.92;96306.63;5021938;28;20048;-75
2021/11/20 08:30:01;;;;;;;4.80;2.15;;;;;;;4.80;78.65;96314.63;5024460;28;20052;-79
2021/11/20 08:32:35;;;;;;;5.05;1.80;;;;;;;4.57;78.33;96294.13;5008992;28;20064;-77
2021/11/20 08:35:17;;;;;;;2.67;1.80;;;;;;;4.75;78.39;96311.41;5019270;28;20246;-77
2021/11/20 08:38:15;;;;;;;3.42;1.80;;;;;;;4.71;78.62;96309.88;5001057;28;20068;-78
2021/11/20 08:41:02;;;;;;;2.83;1.70;;;;;;;4.58;78.67;96291.50;5019226;28;20054;-82
2021/11/20 08:43:44;;;;;;;3.92;1.40;;;;;;;4.28;78.35;96236.94;5012169;28;20461;-82
2021/11/20 08:46:31;;;;;;;2.42;1.48;;;;;;;4.65;77.83;96298.06;4993737;28;20089;-79
2021/11/20 08:49:01;;;;;;;4.68;1.80;;;;;;;4.74;78.62;96298.59;4993164;28;20050;-76
2021/11/20 08:51:32;;;;;;;2.28;1.70;;;;;;;4.97;78.39;96323.38;4997458;28;20034;-79
2021/11/20 08:54:03;;;;;;;1.92;1.40;;;;;;;4.74;78.51;96299.44;4983853;28;20559;-78
2021/11/20 08:56:32;;;;;;;2.63;1.60;;;;;;;4.71;77.80;96303.88;5026870;28;20490;-79
2021/11/20 08:59:22;;;;;;;6.63;1.50;;;;;;;4.80;78.60;96324.94;5012393;28;20049;-77
2021/11/20 09:02:28;;;;;;;3.92;1.90;;;;;;;4.90;77.95;96345.19;5025326;28;20057;-79
2021/11/20 09:05:24;;;;;;;2.85;1.63;;;;;;;4.85;77.10;96342.78;4982184;28;20086;-79
2021/11/20 09:07:56;;;;;;;2.05;1.60;;;;;;;4.81;77.95;96351.53;5040939;28;20053;-78
2021/11/20 09:10:32;;;;;;;3.83;2.05;;;;;;;4.73;77.64;96357.00;5013738;28;20069;-79
2021/11/20 09:13:01;;;;;;;2.58;1.60;;;;;;;4.72;77.53;96352.75;4997493;28;20456;-76
2021/11/20 09:16:05;;;;;;;3.75;2.30;;;;;;;4.73;77.79;96363.88;4990881;28;20089;-83
2021/11/20 09:19:10;;;;;;;3.60;1.88;;;;;;;3.56;76.96;96215.72;4988231;28;20534;-78
2021/11/20 09:21:41;;;;;;;3.17;1.75;;;;;;;4.16;77.48;96323.22;5023585;28;20041;-80
2021/11/20 09:24:29;;;;;;;2.83;1.95;;;;;;;4.21;76.92;96316.97;5010411;28;20038;-76
2021/11/20 09:27:16;;;;;;;2.67;1.80;;;;;;;4.48;77.27;96350.25;5011805;28;20061;-82
2021/11/20 09:29:43;;;;;;;2.58;1.90;;;;;;;4.25;77.36;96322.00;4996533;28;20076;-75
2021/11/20 09:32:10;;;;;;;2.17;1.55;;;;;;;4.61;77.83;96385.81;5015246;28;20041;-77
2021/11/20 09:34:48;;;;;;;4.32;2.20;;;;;;;4.61;77.31;96383.25;5013308;28;20046;-78
2021/11/20 09:37:38;;;;;;;5.68;1.77;;;;;;;4.75;77.58;96393.00;5004381;28;20084;-78
2021/11/20 09:40:14;;;;;;;1.90;1.70;;;;;;;4.56;77.19;96367.97;4997896;28;20116;-77
2021/11/20 09:42:59;;;;;;;4.00;2.17;;;;;;;4.69;77.43;96396.66;5027382;28;20072;-78
2021/11/20 09:45:30;;;;;;;3.47;1.90;;;;;;;4.64;77.25;96401.97;5013413;28;20065;-77
2021/11/20 09:48:13;;;;;;;;;;;;;;;4.66;76.74;96409.66;4997275;28;20042;-77
2021/11/20 09:50:51;;;;;;;3.90;2.05;;;;;;;4.44;77.36;96369.31;4998956;28;19928;-78
2021/11/20 09:53:17;;;;;;;2.50;1.80;;;;;;;4.61;76.47;96424.44;5001307;28;20029;-77
2021/11/20 09:55:46;;;;;;;2.33;1.73;;;;;;;4.55;76.74;96428.09;4990322;28;20049;-78
2021/11/20 09:58:18;;;;;;;2.15;1.88;;;;;;;4.54;77.24;96439.31;5027384;28;20135;-75
2021/11/20 10:01:13;;;;;;;2.20;1.58;;;;;;;4.53;76.94;96445.34;5016838;28;20156;-78
2021/11/20 10:04:08;;;;;;;2.25;1.60;;;;;;;4.44;77.20;96443.97;5033809;28;20236;-77
2021/11/20 10:06:52;;;;;;;2.03;1.30;;;;;;;4.39;77.00;96463.88;5017138;28;20522;-79
2021/11/20 10:09:27;;;;;;;1.80;1.48;;;;;;;4.21;76.47;96455.09;5001253;28;20052;-78
2021/11/20 10:12:17;;;;;;;3.78;1.90;;;;;;;4.21;76.70;96476.53;5029314;28;20052;-77
2021/11/20 10:14:50;;;;;;;2.30;1.40;;;;;;;4.16;76.90;96481.00;5030598;28;20037;-82
2021/11/20 10:17:33;;;;;;;2.45;1.60;;;;;;;3.84;77.24;96433.28;5034523;28;20033;-79
2021/11/20 10:20:15;;;;;;;2.92;2.00;;;;;;;4.22;76.87;96490.25;5013149;28;20049;-83
2021/11/20 10:23:09;;;;;;;2.92;1.77;;;;;;;4.22;76.53;96496.25;5024782;28;20037;-83
2021/11/20 10:26:21;;;;;;;3.45;1.75;;;;;;;4.12;76.48;96481.19;4984761;28;20428;-85
2021/11/20 10:29:00;;;;;;;;;;;;;;;4.17;76.51;96502.47;5014725;28;20064;-83
2021/11/20 10:31:44;;;;;;;2.30;1.60;;;;;;;3.88;76.46;96479.41;5002999;28;19917;-81
2021/11/20 10:34:23;;;;;;;2.50;1.73;;;;;;;3.81;77.01;96471.97;5000569;28;20120;-82
2021/11/20 10:37:21;;;;;;;2.92;1.58;;;;;;;4.01;76.68;96510.69;5002990;28;20041;-80
2021/11/20 10:39:57;;;;;;;2.05;1.40;;;;;;;3.98;76.72;96520.28;4985670;28;20132;-81
2021/11/20 10:42:40;;;;;;;1.85;1.33;;;;;;;3.29;76.73;96422.28;5001125;28;20100;-80
2021/11/20 10:45:42;;;;;;;1.85;1.58;;;;;;;3.98;76.68;96530.56;4998036;28;20049;-85
2021/11/20 10:48:26;;;;;;;2.03;1.30;;;;;;;3.94;76.46;96547.00;4976818;28;20048;-80
2021/11/20 10:51:14;;;;;;;3.42;1.58;;;;;;;3.89;76.38;96553.13;5010421;28;20041;-81
2021/11/20 10:54:15;;;;;;;2.13;1.40;;;;;;;3.90;76.41;96553.97;5029848;28;20048;-82
2021/11/20 10:56:53;;;;;;;1.63;1.30;;;;;;;3.92;76.11;96560.75;4988273;28;20112;-81
2021/11/20 10:59:33;;;;;;;2.13;1.40;;;;;;;3.86;77.11;96570.41;5010036;28;20080;-80
2021/11/20 11:02:16;;;;;;;1.70;1.30;;;;;;;3.46;76.46;96545.13;5004303;28;20045;-82
2021/11/20 11:05:03;;;;;;;1.90;1.70;;;;;;;3.76;77.32;96587.88;4995399;28;20038;-83
2021/11/20 11:08:12;;;;;;;1.98;1.30;;;;;;;3.76;76.69;96601.56;5012333;28;20055;-79
2021/11/20 11:10:45;;;;;;;4.97;1.30;;;;;;;3.75;76.83;96605.03;4978320;28;20033;-80
2021/11/20 11:13:37;;;;;;;2.13;1.45;;;;;;;3.64;76.52;96593.44;4993830;28;20048;-85
2021/11/20 11:16:25;;;;;;;2.22;1.30;;;;;;;3.39;77.00;96565.94;4997152;28;20079;-81
2021/11/20 11:18:57;;;;;;;1.67;1.30;;;;;;;3.64;76.14;96611.44;4993361;28;20056;-81
2021/11/20 11:21:39;;;;;;;;;;;;;;;3.75;77.08;96623.03;5030005;28;20049;-82
2021/11/20 11:24:30;;;;;;;1.73;1.10;;;;;;;3.16;76.58;96558.03;5029654;28;19916;-80
2021/11/20 11:27:14;;;;;;;5.18;1.55;;;;;;;3.65;76.83;96643.94;5008777;28;20368;-77
2021/11/20 11:30:03;;;;;;;2.53;1.65;;;;;;;3.57;76.46;96654.47;4996256;28;20076;-83
2021/11/20 11:32:34;;;;;;;2.55;1.10;;;;;;;3.55;76.21;96657.09;4971269;28;20045;-80
2021/11/20 11:35:23;;;;;;;2.20;1.10;;;;;;;2.58;76.71;96511.00;4993830;28;20072;-81
2021/11/20 11:38:19;;;;;;;4.65;1.35;;;;;;;3.62;76.77;96683.47;5018914;28;20060;-79
2021/11/20 11:40:56;;;;;;;1.40;1.00;;;;;;;3.31;76.36;96656.97;5020252;28;20095;-79
2021/11/20 11:43:44;;;;;;;2.60;1.17;;;;;;;3.47;76.30;96711.34;5036454;28;20045;-80
2021/11/20 11:46:13;;;;;;;1.33;1.00;;;;;;;3.11;76.12;96641.28;5035148;28;20042;-80
2021/11/20 11:48:54;;;;;;;2.17;1.20;;;;;;;3.49;76.43;96707.88;4991330;28;20046;-80
2021/11/20 11:51:50;;;;;;;2.08;1.20;;;;;;;3.47;76.90;96725.91;4993906;28;20053;-79
2021/11/20 11:54:27;;;;;;;1.27;0.82;;;;;;;3.41;76.40;96726.09;4989464;28;20124;-82
2021/11/20 11:56:57;;;;;;;1.55;0.95;;;;;;;3.49;76.48;96749.84;5023684;28;20464;-78
2021/11/20 11:59:35;;;;;;;1.50;1.08;;;;;;;3.47;76.58;96755.03;5004771;28;20045;-78
2021/11/20 12:02:25;;;;;;;2.47;1.02;;;;;;;2.91;76.71;96665.84;5008360;28;20107;-80
2021/11/20 12:04:56;;;;;;;1.38;0.80;;;;;;;3.19;76.34;96723.31;5021610;28;20044;-78
2021/11/20 12:07:56;;;;;;;2.25;0.90;;;;;;;3.38;76.46;96769.91;5011179;28;20037;-81
2021/11/20 12:10:22;;;;;;;1.73;1.02;;;;;;;3.43;76.55;96776.59;5021669;28;20084;-80
2021/11/20 12:13:10;;;;;;;1.30;0.77;;;;;;;3.37;76.06;96793.91;5022456;28;20049;-82
2021/11/20 12:16:08;;;;;;;1.77;0.88;;;;;;;2.24;75.97;96623.16;5022571;28;20037;-80
2021/11/20 12:18:41;;;;;;;0.93;0.80;;;;;;;3.37;76.58;96815.31;5007733;28;20073;-81
2021/11/20 12:21:39;;;;;;;1.70;0.77;;;;;;;3.13;76.34;96791.97;5022527;28;20048;-81
2021/11/20 12:24:39;;;;;;;2.10;1.00;;;;;;;3.34;76.33;96835.13;5016540;28;20046;-80
2021/11/20 12:27:23;;;;;;;1.60;0.90;;;;;;;3.28;76.71;96839.53;5007828;28;20036;-81